createdAt,value
2018-02-25T00:01:25.755Z,17.48
2018-02-25T00:03:51.912Z,17.50
2018-02-25T00:06:18.135Z,17.50
2018-02-25T00:08:44.325Z,17.47
2018-02-25T00:11:10.509Z,17.47
2018-02-25T00:13:36.745Z,17.47
2018-02-25T00:16:02.904Z,17.45
2018-02-25T00:18:29.082Z,17.48
2018-02-25T00:20:55.284Z,17.47
2018-02-25T00:23:21.491Z,17.44
2018-02-25T00:25:47.728Z,17.44
2018-02-25T00:28:13.902Z,17.42
2018-02-25T00:30:40.083Z,17.45
2018-02-25T00:33:06.265Z,17.44
2018-02-25T00:35:32.454Z,17.40
2018-02-25T00:37:58.691Z,17.38
2018-02-25T00:40:24.856Z,17.44
2018-02-25T00:42:51.044Z,17.41
2018-02-25T00:45:17.263Z,17.36
2018-02-25T00:47:43.420Z,17.38
2018-02-25T00:50:09.917Z,17.37
2018-02-25T00:52:36.451Z,17.36
2018-02-25T00:55:02.665Z,17.38
2018-02-25T00:57:28.832Z,17.42
2018-02-25T00:59:55.045Z,17.41
2018-02-25T01:02:21.570Z,17.37
2018-02-25T01:04:47.813Z,17.36
2018-02-25T01:07:13.991Z,17.36
2018-02-25T01:09:40.155Z,17.37
2018-02-25T01:12:06.392Z,17.40
2018-02-25T01:14:38.731Z,17.39
2018-02-25T01:17:05.287Z,17.39
2018-02-25T01:19:31.536Z,17.38
2018-02-25T01:21:57.699Z,17.37
2018-02-25T01:24:29.857Z,17.38
2018-02-25T01:26:56.045Z,17.39
2018-02-25T01:29:22.232Z,17.34
2018-02-25T01:31:48.412Z,17.34
2018-02-25T01:34:14.640Z,17.38
2018-02-25T01:36:40.819Z,17.43
2018-02-25T01:39:06.980Z,17.40
2018-02-25T01:41:33.186Z,17.38
2018-02-25T01:43:59.348Z,17.40
2018-02-25T01:46:25.554Z,17.41
2018-02-25T01:48:51.729Z,17.39
2018-02-25T01:51:17.916Z,17.38
2018-02-25T01:53:44.118Z,17.38
2018-02-25T01:56:10.313Z,17.34
2018-02-25T01:58:36.495Z,17.34
2018-02-25T02:01:02.731Z,17.34
2018-02-25T02:03:28.908Z,17.34
2018-02-25T02:05:55.138Z,17.37
2018-02-25T02:08:21.606Z,17.36
2018-02-25T02:10:48.072Z,17.35
2018-02-25T02:13:14.246Z,17.38
2018-02-25T02:15:40.428Z,17.37
2018-02-25T02:18:06.934Z,17.37
2018-02-25T02:20:33.116Z,17.39
2018-02-25T02:22:59.455Z,17.32
2018-02-25T02:25:25.615Z,17.31
2018-02-25T02:27:52.046Z,17.28
2018-02-25T02:30:18.253Z,17.29
2018-02-25T02:32:44.418Z,17.30
2018-02-25T02:35:10.941Z,17.29
2018-02-25T02:37:37.145Z,17.32
2018-02-25T02:40:03.297Z,17.28
2018-02-25T02:42:29.533Z,17.27
2018-02-25T02:44:55.707Z,17.26
2018-02-25T02:47:21.891Z,17.28
2018-02-25T02:49:48.109Z,17.28
2018-02-25T02:52:14.275Z,17.23
2018-02-25T02:54:40.464Z,17.27
2018-02-25T02:57:06.671Z,17.24
2018-02-25T02:59:32.887Z,17.22
2018-02-25T03:01:59.051Z,17.22
2018-02-25T03:04:25.285Z,17.23
2018-02-25T03:06:51.822Z,17.25
2018-02-25T03:09:18.012Z,17.24
2018-02-25T03:11:44.191Z,17.23
2018-02-25T03:14:10.349Z,17.20
2018-02-25T03:16:36.527Z,17.20
2018-02-25T03:19:02.679Z,17.21
2018-02-25T03:21:28.896Z,17.23
2018-02-25T03:23:55.052Z,17.22
2018-02-25T03:26:21.275Z,17.25
2018-02-25T03:28:47.506Z,17.28
2018-02-25T03:31:13.651Z,17.27
2018-02-25T03:33:40.208Z,17.28
2018-02-25T03:36:06.396Z,17.30
2018-02-25T03:38:32.572Z,17.28
2018-02-25T03:40:58.792Z,17.26
2018-02-25T03:43:24.992Z,17.29
2018-02-25T03:45:51.449Z,17.30
2018-02-25T03:48:17.658Z,17.28
2018-02-25T03:50:43.814Z,17.27
2018-02-25T03:53:09.982Z,17.24
2018-02-25T03:55:36.228Z,17.22
2018-02-25T03:58:02.470Z,17.24
2018-02-25T04:00:28.608Z,17.26
2018-02-25T04:02:54.765Z,17.25
2018-02-25T04:05:20.972Z,17.23
2018-02-25T04:07:47.404Z,17.22
2018-02-25T04:10:13.581Z,17.21
2018-02-25T04:12:40.068Z,17.22
2018-02-25T04:15:06.272Z,17.20
2018-02-25T04:17:32.465Z,17.22
2018-02-25T04:19:58.644Z,17.20
2018-02-25T04:22:24.820Z,17.22
2018-02-25T04:24:51.003Z,17.19
2018-02-25T04:27:17.144Z,17.18
2018-02-25T04:29:43.662Z,17.19
2018-02-25T04:32:10.095Z,17.19
2018-02-25T04:34:36.265Z,17.17
2018-02-25T04:37:02.527Z,17.14
2018-02-25T04:39:28.708Z,17.12
2018-02-25T04:41:54.889Z,17.11
2018-02-25T04:44:21.102Z,17.13
2018-02-25T04:46:47.279Z,17.13
2018-02-25T04:49:13.432Z,17.14
2018-02-25T04:51:39.651Z,17.12
2018-02-25T04:54:05.816Z,17.10
2018-02-25T04:56:32.072Z,17.13
2018-02-25T04:58:58.501Z,17.13
2018-02-25T05:01:24.787Z,17.12
2018-02-25T05:03:50.964Z,17.07
2018-02-25T05:06:17.389Z,17.05
2018-02-25T05:08:43.670Z,17.05
2018-02-25T05:11:09.828Z,17.05
2018-02-25T05:13:36.283Z,17.08
2018-02-25T05:16:02.488Z,17.09
2018-02-25T05:18:28.657Z,17.10
2018-02-25T05:20:54.824Z,17.09
2018-02-25T05:23:21.051Z,17.10
2018-02-25T05:25:47.340Z,17.11
2018-02-25T05:28:13.532Z,17.13
2018-02-25T05:30:39.732Z,17.12
2018-02-25T05:33:05.928Z,17.13
2018-02-25T05:35:32.108Z,17.11
2018-02-25T05:37:58.324Z,17.17
2018-02-25T05:40:24.501Z,17.23
2018-02-25T05:42:50.655Z,17.23
2018-02-25T05:45:16.840Z,17.20
2018-02-25T05:47:42.978Z,17.23
2018-02-25T05:50:09.174Z,17.24
2018-02-25T05:52:35.324Z,17.24
2018-02-25T05:55:01.528Z,17.23
2018-02-25T05:57:27.782Z,17.26
2018-02-25T05:59:53.991Z,17.24
2018-02-25T06:02:20.178Z,17.23
2018-02-25T06:04:46.354Z,17.23
2018-02-25T06:07:12.531Z,17.24
2018-02-25T06:09:38.755Z,17.24
2018-02-25T06:12:04.918Z,17.24
2018-02-25T06:14:31.102Z,17.25
2018-02-25T06:16:57.288Z,17.22
2018-02-25T06:19:23.449Z,17.22
2018-02-25T06:21:49.621Z,17.22
2018-02-25T06:24:15.814Z,17.23
2018-02-25T06:26:42.041Z,17.19
2018-02-25T06:29:08.276Z,17.22
2018-02-25T06:31:34.759Z,17.20
2018-02-25T06:34:00.944Z,17.24
2018-02-25T06:36:27.123Z,17.25
2018-02-25T06:38:53.380Z,17.23
2018-02-25T06:41:19.546Z,17.23
2018-02-25T06:43:45.710Z,17.25
2018-02-25T06:46:11.903Z,17.22
2018-02-25T06:48:38.355Z,17.24
2018-02-25T06:51:04.535Z,17.27
2018-02-25T06:53:30.686Z,17.29
2018-02-25T06:55:56.904Z,17.28
2018-02-25T06:58:23.082Z,17.28
2018-02-25T07:00:49.236Z,17.33
2018-02-25T07:03:15.469Z,17.34
2018-02-25T07:05:41.652Z,17.28
2018-02-25T07:08:07.848Z,17.24
2018-02-25T07:10:34.078Z,17.24
2018-02-25T07:13:00.256Z,17.25
2018-02-25T07:15:26.480Z,17.30
2018-02-25T07:17:52.702Z,17.37
2018-02-25T07:20:19.226Z,17.38
2018-02-25T07:22:45.396Z,17.40
2018-02-25T07:25:11.759Z,17.41
2018-02-25T07:27:38.215Z,17.40
2018-02-25T07:30:04.411Z,17.41
2018-02-25T07:32:30.877Z,17.44
2018-02-25T07:34:57.103Z,17.45
2018-02-25T07:37:23.275Z,17.46
2018-02-25T07:39:49.450Z,17.46
2018-02-25T07:42:15.734Z,17.51
2018-02-25T07:44:41.894Z,17.53
2018-02-25T07:47:08.312Z,17.59
2018-02-25T07:49:34.511Z,17.62
2018-02-25T07:52:00.713Z,17.65
2018-02-25T07:54:26.976Z,17.66
2018-02-25T07:56:53.215Z,17.66
2018-02-25T07:59:19.398Z,17.69
2018-02-25T08:01:45.925Z,17.69
2018-02-25T08:04:12.117Z,17.68
2018-02-25T08:06:38.302Z,17.71
2018-02-25T08:09:04.527Z,17.76
2018-02-25T08:11:30.687Z,17.77
2018-02-25T08:13:56.935Z,17.77
2018-02-25T08:16:23.088Z,17.77
2018-02-25T08:18:49.244Z,17.78
2018-02-25T08:21:15.750Z,17.78
2018-02-25T08:23:41.974Z,17.80
2018-02-25T08:26:08.128Z,17.85
2018-02-25T08:28:34.330Z,17.87
2018-02-25T08:31:00.582Z,17.82
2018-02-25T08:33:26.740Z,17.81
2018-02-25T08:35:52.965Z,17.83
2018-02-25T08:38:19.144Z,17.83
2018-02-25T08:40:45.308Z,17.79
2018-02-25T08:43:11.905Z,17.84
2018-02-25T08:45:44.239Z,17.85
2018-02-25T08:48:10.439Z,17.88
2018-02-25T08:50:36.588Z,17.87
2018-02-25T08:53:02.784Z,17.87
2018-02-25T08:55:29.000Z,17.83
2018-02-25T08:57:55.178Z,17.81
2018-02-25T09:00:21.456Z,17.83
2018-02-25T09:02:47.701Z,17.84
2018-02-25T09:05:14.136Z,17.82
2018-02-25T09:07:40.638Z,17.85
2018-02-25T09:10:06.881Z,17.86
2018-02-25T09:12:33.042Z,17.85
2018-02-25T09:14:59.224Z,17.82
2018-02-25T09:17:25.439Z,17.81
2018-02-25T09:19:51.624Z,17.81
2018-02-25T09:22:17.835Z,17.77
2018-02-25T09:24:43.996Z,17.81
2018-02-25T09:27:10.176Z,17.84
2018-02-25T09:29:36.391Z,17.87
2018-02-25T09:32:02.640Z,17.91
2018-02-25T09:34:28.820Z,17.99
2018-02-25T09:36:54.985Z,18.03
2018-02-25T09:39:21.210Z,18.02
2018-02-25T09:41:47.360Z,18.07
2018-02-25T09:44:13.565Z,18.11
2018-02-25T09:46:39.742Z,18.11
2018-02-25T09:49:06.085Z,18.18
2018-02-25T09:51:32.544Z,18.21
2018-02-25T09:53:58.710Z,18.24
2018-02-25T09:56:24.875Z,18.29
2018-02-25T09:58:51.075Z,18.32
2018-02-25T10:01:17.654Z,18.30
2018-02-25T10:03:43.883Z,18.28
2018-02-25T10:06:10.075Z,18.31
2018-02-25T10:08:36.290Z,18.33
2018-02-25T10:11:02.471Z,18.31
2018-02-25T10:13:29.006Z,18.30
2018-02-25T10:15:55.181Z,18.32
2018-02-25T10:18:21.355Z,18.34
2018-02-25T10:20:47.542Z,18.38
2018-02-25T10:23:13.896Z,18.40
2018-02-25T10:25:40.119Z,18.39
2018-02-25T10:28:06.273Z,18.44
2018-02-25T10:30:32.801Z,18.50
2018-02-25T10:32:59.337Z,18.52
2018-02-25T10:35:25.508Z,18.58
2018-02-25T10:37:51.681Z,18.61
2018-02-25T10:40:17.900Z,18.64
2018-02-25T10:42:44.105Z,18.64
2018-02-25T10:45:10.319Z,18.64
2018-02-25T10:47:36.812Z,18.62
2018-02-25T10:50:03.043Z,18.60
2018-02-25T10:52:29.265Z,18.57
2018-02-25T10:54:55.697Z,18.54
2018-02-25T10:57:21.846Z,18.53
2018-02-25T10:59:48.105Z,18.52
2018-02-25T11:02:14.296Z,18.48
2018-02-25T11:04:40.708Z,18.46
2018-02-25T11:07:06.888Z,18.52
2018-02-25T11:09:33.103Z,18.51
2018-02-25T11:11:59.262Z,18.47
2018-02-25T11:14:25.445Z,18.44
2018-02-25T11:16:51.672Z,18.42
2018-02-25T11:19:17.843Z,18.41
2018-02-25T11:21:44.046Z,18.39
2018-02-25T11:24:10.254Z,18.42
2018-02-25T11:26:36.446Z,18.39
2018-02-25T11:29:02.677Z,18.33
2018-02-25T11:31:29.074Z,18.27
2018-02-25T11:33:55.209Z,18.22
2018-02-25T11:36:21.431Z,18.21
2018-02-25T11:38:47.615Z,18.18
2018-02-25T11:41:14.135Z,18.17
2018-02-25T11:43:40.324Z,18.14
2018-02-25T11:46:06.528Z,18.15
2018-02-25T11:48:32.744Z,18.20
2018-02-25T11:50:58.987Z,18.24
2018-02-25T11:53:25.192Z,18.29
2018-02-25T11:55:51.712Z,18.29
2018-02-25T11:58:18.180Z,18.31
2018-02-25T12:00:44.337Z,18.30
2018-02-25T12:03:10.580Z,18.29
2018-02-25T12:05:36.758Z,18.30
2018-02-25T12:08:03.258Z,18.26
2018-02-25T12:10:29.456Z,18.32
2018-02-25T12:12:55.615Z,18.36
2018-02-25T12:15:21.791Z,18.37
2018-02-25T12:17:47.983Z,18.41
2018-02-25T12:20:14.240Z,18.39
2018-02-25T12:22:40.412Z,18.33
2018-02-25T12:25:06.567Z,18.34
2018-02-25T12:27:32.759Z,18.36
2018-02-25T12:29:59.212Z,18.42
2018-02-25T12:32:25.747Z,18.49
2018-02-25T12:34:52.176Z,18.59
2018-02-25T12:37:18.358Z,18.59
2018-02-25T12:39:44.588Z,18.60
2018-02-25T12:42:11.072Z,18.61
2018-02-25T12:44:37.251Z,18.53
2018-02-25T12:47:03.465Z,18.41
2018-02-25T12:49:29.639Z,18.26
2018-02-25T12:51:56.080Z,18.15
2018-02-25T12:54:22.616Z,18.09
2018-02-25T12:56:49.048Z,18.03
2018-02-25T12:59:15.288Z,18.01
2018-02-25T13:01:41.470Z,18.04
2018-02-25T13:04:07.941Z,18.10
2018-02-25T13:06:34.169Z,18.11
2018-02-25T13:09:00.345Z,18.14
2018-02-25T13:11:26.832Z,18.15
2018-02-25T13:13:53.032Z,18.17
2018-02-25T13:16:25.284Z,18.15
2018-02-25T13:18:51.492Z,18.10
2018-02-25T13:21:17.660Z,18.08
2018-02-25T13:23:43.874Z,18.09
2018-02-25T13:26:10.097Z,18.12
2018-02-25T13:28:36.651Z,18.14
2018-02-25T13:31:03.071Z,18.14
2018-02-25T13:33:29.570Z,18.13
2018-02-25T13:35:56.072Z,18.13
2018-02-25T13:38:22.239Z,18.18
2018-02-25T13:40:48.438Z,18.22
2018-02-25T13:43:14.652Z,18.19
2018-02-25T13:45:40.815Z,18.17
2018-02-25T13:48:07.317Z,18.11
2018-02-25T13:50:33.523Z,18.09
2018-02-25T13:52:59.979Z,18.05
2018-02-25T13:55:26.139Z,18.08
2018-02-25T13:57:52.328Z,18.11
2018-02-25T14:00:18.530Z,18.17
2018-02-25T14:02:44.692Z,18.22
2018-02-25T14:05:10.930Z,18.29
2018-02-25T14:07:37.098Z,18.29
2018-02-25T14:10:03.294Z,18.31
2018-02-25T14:12:29.835Z,18.34
2018-02-25T14:14:56.001Z,18.33
2018-02-25T14:17:22.159Z,18.31
2018-02-25T14:19:48.357Z,18.33
2018-02-25T14:22:14.700Z,18.34
2018-02-25T14:24:40.919Z,18.35
2018-02-25T14:27:07.381Z,18.39
2018-02-25T14:29:33.623Z,18.40
2018-02-25T14:31:59.788Z,18.36
2018-02-25T14:34:26.271Z,18.33
2018-02-25T14:36:52.493Z,18.34
2018-02-25T14:39:19.033Z,18.35
2018-02-25T14:41:45.279Z,18.36
2018-02-25T14:44:11.453Z,18.34
2018-02-25T14:46:37.633Z,18.37
2018-02-25T14:49:03.858Z,18.42
2018-02-25T14:51:30.040Z,18.62
2018-02-25T14:53:56.499Z,18.91
2018-02-25T14:56:22.688Z,18.98
2018-02-25T14:58:48.870Z,18.93
2018-02-25T15:01:15.097Z,18.77
2018-02-25T15:03:41.256Z,18.56
2018-02-25T15:06:07.477Z,18.43
2018-02-25T15:08:33.692Z,18.28
2018-02-25T15:10:59.891Z,18.25
2018-02-25T15:13:26.099Z,18.78
2018-02-25T15:15:52.551Z,19.15
2018-02-25T15:18:19.088Z,18.79
2018-02-25T15:20:45.637Z,18.59
2018-02-25T15:23:11.821Z,18.83
2018-02-25T15:25:38.000Z,19.21
2018-02-25T15:28:04.225Z,19.47
2018-02-25T15:30:30.687Z,19.25
2018-02-25T15:32:56.835Z,18.98
2018-02-25T15:35:23.060Z,18.94
2018-02-25T15:37:49.249Z,18.80
2018-02-25T15:40:15.484Z,18.63
2018-02-25T15:42:41.661Z,18.48
2018-02-25T15:45:07.842Z,18.37
2018-02-25T15:47:34.050Z,18.34
2018-02-25T15:50:00.349Z,18.34
2018-02-25T15:52:26.794Z,18.34
2018-02-25T15:54:52.976Z,18.40
2018-02-25T15:57:19.563Z,18.50
2018-02-25T15:59:45.737Z,18.70
2018-02-25T16:02:11.957Z,18.86
2018-02-25T16:04:38.452Z,19.03
2018-02-25T16:07:04.982Z,19.14
2018-02-25T16:09:31.217Z,19.25
2018-02-25T16:11:57.703Z,19.32
2018-02-25T16:14:23.934Z,19.36
2018-02-25T16:16:50.123Z,19.34
2018-02-25T16:19:16.638Z,19.25
2018-02-25T16:21:42.863Z,19.17
2018-02-25T16:24:09.163Z,19.14
2018-02-25T16:26:35.636Z,19.10
2018-02-25T16:29:02.110Z,19.04
2018-02-25T16:31:28.316Z,18.96
2018-02-25T16:33:54.512Z,18.82
2018-02-25T16:36:20.721Z,18.66
2018-02-25T16:38:46.918Z,18.54
2018-02-25T16:41:13.226Z,18.47
2018-02-25T16:43:39.447Z,18.35
2018-02-25T16:46:05.619Z,18.27
2018-02-25T16:48:31.848Z,18.22
2018-02-25T16:50:58.039Z,18.11
2018-02-25T16:53:24.227Z,18.02
2018-02-25T16:55:50.777Z,17.98
2018-02-25T16:58:16.937Z,17.94
2018-02-25T17:00:43.157Z,17.90
2018-02-25T17:03:09.342Z,17.84
2018-02-25T17:05:35.835Z,17.78
2018-02-25T17:08:01.837Z,17.77
2018-02-25T17:10:28.016Z,17.74
2018-02-25T17:12:54.218Z,17.76
2018-02-25T17:15:20.512Z,17.75
2018-02-25T17:17:46.747Z,17.72
2018-02-25T17:20:12.903Z,17.69
2018-02-25T17:22:39.121Z,17.69
2018-02-25T17:25:05.323Z,17.66
2018-02-25T17:27:31.543Z,17.60
2018-02-25T17:29:57.749Z,17.60
2018-02-25T17:32:23.988Z,17.63
2018-02-25T17:34:50.217Z,17.57
2018-02-25T17:37:16.380Z,17.56
2018-02-25T17:39:42.630Z,17.57
2018-02-25T17:42:08.818Z,17.56
2018-02-25T17:44:35.001Z,17.53
2018-02-25T17:47:01.265Z,17.53
2018-02-25T17:49:27.478Z,17.54
2018-02-25T17:51:54.032Z,17.52
2018-02-25T17:54:20.235Z,17.51
2018-02-25T17:56:46.459Z,17.46
2018-02-25T17:59:12.687Z,17.43
2018-02-25T18:01:38.885Z,17.42
2018-02-25T18:04:05.072Z,17.43
2018-02-25T18:06:31.329Z,17.39
2018-02-25T18:08:57.565Z,17.38
2018-02-25T18:11:23.782Z,17.37
2018-02-25T18:13:49.995Z,17.36
2018-02-25T18:16:16.192Z,17.34
2018-02-25T18:18:42.361Z,17.33
2018-02-25T18:21:08.582Z,17.34
2018-02-25T18:23:34.799Z,17.32
2018-02-25T18:26:01.320Z,17.29
2018-02-25T18:28:27.489Z,17.28
2018-02-25T18:30:53.672Z,17.27
2018-02-25T18:33:19.969Z,17.26
2018-02-25T18:35:46.214Z,17.25
2018-02-25T18:38:12.400Z,17.26
2018-02-25T18:40:38.585Z,17.22
2018-02-25T18:43:04.759Z,17.22
2018-02-25T18:45:32.479Z,17.19
2018-02-25T18:47:58.701Z,17.19
2018-02-25T18:50:26.734Z,17.19
2018-02-25T18:52:54.453Z,17.18
2018-02-25T18:55:20.642Z,17.19
2018-02-25T18:57:47.104Z,17.21
2018-02-25T19:00:13.323Z,17.19
2018-02-25T19:02:39.532Z,17.17
2018-02-25T19:05:05.786Z,17.14
2018-02-25T19:07:32.035Z,17.11
2018-02-25T19:09:58.316Z,17.14
2018-02-25T19:12:24.545Z,17.12
2018-02-25T19:14:50.742Z,17.11
2018-02-25T19:17:16.953Z,17.11
2018-02-25T19:19:43.171Z,17.10
2018-02-25T19:22:09.356Z,17.14
2018-02-25T19:24:35.548Z,17.15
2018-02-25T19:27:01.729Z,17.18
2018-02-25T19:29:28.079Z,17.14
2018-02-25T19:31:54.276Z,17.12
2018-02-25T19:34:20.835Z,17.08
2018-02-25T19:36:53.305Z,17.06
2018-02-25T19:39:25.487Z,17.08
2018-02-25T19:41:52.662Z,17.09
2018-02-25T19:44:19.162Z,17.09
2018-02-25T19:46:45.398Z,17.08
2018-02-25T19:49:11.590Z,17.07
2018-02-25T19:51:37.751Z,17.08
2018-02-25T19:54:03.931Z,17.12
2018-02-25T19:56:30.138Z,17.14
2018-02-25T19:58:56.294Z,17.14
2018-02-25T20:01:22.752Z,17.15
2018-02-25T20:03:49.293Z,17.17
2018-02-25T20:06:15.496Z,17.14
2018-02-25T20:08:42.055Z,17.12
2018-02-25T20:11:08.256Z,17.12
2018-02-25T20:13:34.451Z,17.13
2018-02-25T20:16:00.945Z,17.09
2018-02-25T20:18:27.119Z,17.14
2018-02-25T20:20:53.709Z,17.15
2018-02-25T20:23:19.900Z,17.07
2018-02-25T20:25:46.089Z,17.10
2018-02-25T20:28:12.318Z,17.11
2018-02-25T20:30:38.500Z,17.10
2018-02-25T20:33:05.664Z,17.08
2018-02-25T20:35:31.901Z,17.06
2018-02-25T20:37:58.069Z,17.09
2018-02-25T20:40:24.559Z,17.09
2018-02-25T20:42:50.753Z,17.08
2018-02-25T20:45:16.920Z,17.07
2018-02-25T20:47:43.155Z,17.07
2018-02-25T20:50:09.311Z,17.05
2018-02-25T20:52:35.472Z,17.05
2018-02-25T20:55:01.680Z,17.06
2018-02-25T20:57:27.865Z,17.00
2018-02-25T20:59:54.072Z,16.99
2018-02-25T21:02:20.252Z,17.04
2018-02-25T21:04:46.423Z,17.03
2018-02-25T21:07:12.964Z,17.01
2018-02-25T21:09:39.166Z,17.01
2018-02-25T21:12:05.392Z,17.03
2018-02-25T21:14:31.585Z,17.01
2018-02-25T21:16:57.808Z,17.03
2018-02-25T21:19:23.966Z,17.02
2018-02-25T21:21:50.152Z,17.02
2018-02-25T21:24:16.663Z,17.03
2018-02-25T21:26:43.094Z,17.05
2018-02-25T21:29:09.281Z,17.03
2018-02-25T21:31:35.473Z,17.00
2018-02-25T21:34:01.881Z,17.02
2018-02-25T21:36:28.061Z,17.01
2018-02-25T21:38:54.215Z,17.01
2018-02-25T21:41:20.428Z,17.02
2018-02-25T21:43:46.895Z,17.01
2018-02-25T21:46:13.051Z,17.01
2018-02-25T21:48:39.307Z,17.07
2018-02-25T21:51:05.469Z,17.08
2018-02-25T21:53:38.159Z,17.08
2018-02-25T21:56:10.507Z,17.08
2018-02-25T21:58:43.007Z,17.02
2018-02-25T22:01:15.480Z,16.99
2018-02-25T22:03:41.809Z,16.98
2018-02-25T22:06:08.241Z,16.99
2018-02-25T22:08:34.502Z,16.98
2018-02-25T22:11:00.718Z,16.94
2018-02-25T22:13:26.917Z,16.92
2018-02-25T22:15:53.152Z,16.96
2018-02-25T22:18:19.343Z,16.98
2018-02-25T22:20:45.517Z,16.96
2018-02-25T22:23:12.048Z,17.01
2018-02-25T22:25:38.209Z,17.01
2018-02-25T22:28:04.389Z,16.96
2018-02-25T22:30:30.640Z,16.92
2018-02-25T22:32:56.805Z,16.96
2018-02-25T22:35:23.014Z,16.97
2018-02-25T22:37:49.259Z,16.97
2018-02-25T22:40:15.448Z,17.02
2018-02-25T22:42:41.866Z,17.02
2018-02-25T22:45:08.083Z,17.01
2018-02-25T22:47:34.257Z,17.01
2018-02-25T22:50:00.477Z,17.04
2018-02-25T22:52:26.658Z,17.02
2018-02-25T22:54:52.903Z,17.04
2018-02-25T22:57:19.051Z,17.06
2018-02-25T22:59:45.229Z,17.08
2018-02-25T23:02:11.442Z,17.04
2018-02-25T23:04:37.598Z,17.03
2018-02-25T23:07:03.768Z,17.09
2018-02-25T23:09:29.967Z,17.11
2018-02-25T23:11:56.151Z,17.09
2018-02-25T23:14:22.360Z,17.07
2018-02-25T23:16:48.646Z,17.06
2018-02-25T23:19:14.828Z,17.07
2018-02-25T23:21:40.980Z,17.10
2018-02-25T23:24:07.170Z,17.13
2018-02-25T23:26:33.326Z,17.13
2018-02-25T23:28:59.793Z,17.15
2018-02-25T23:31:25.943Z,17.12
2018-02-25T23:33:52.132Z,17.08
2018-02-25T23:36:18.312Z,17.05
2018-02-25T23:38:44.518Z,17.09
2018-02-25T23:41:10.676Z,17.11
2018-02-25T23:43:36.859Z,17.14
2018-02-25T23:46:03.012Z,17.15
2018-02-25T23:48:29.218Z,17.19
2018-02-25T23:50:55.375Z,17.13
2018-02-25T23:53:21.531Z,17.15
2018-02-25T23:55:47.713Z,17.16
2018-02-25T23:58:13.863Z,17.16
